Time;durP1;ratioP1;P1;durP2;ratioP2;P2;SDS_P1;SDS_P2;PMS_P1;PMS_P2;Temp;Humidity;BMP_temperature;BMP_pressure;BME280_temperature;BME280_humidity;BME280_pressure;Samples;Min_cycle;Max_cycle;Signal;HPM_P1;HPM_P2
2022/08/12 00:44:11;;;;;;;4.20;3.80;;;22.90;56.20;;;;;;6231334;23;20223;-89
2022/08/12 00:46:53;;;;;;;4.05;3.65;;;22.80;56.10;;;;;;6202374;23;20369;-88
2022/08/12 00:49:23;;;;;;;3.90;3.50;;;22.90;56.20;;;;;;6205403;23;20596;-88
2022/08/12 00:52:05;;;;;;;3.58;3.28;;;22.80;56.10;;;;;;6201991;23;20208;-88
2022/08/12 00:54:39;;;;;;;3.88;3.47;;;22.80;56.20;;;;;;6203128;23;20695;-88
2022/08/12 00:57:18;;;;;;;3.95;3.63;;;22.80;56.10;;;;;;6108476;23;20188;-90
2022/08/12 00:59:47;;;;;;;3.85;3.55;;;22.80;56.20;;;;;;6106382;23;20599;-87
2022/08/12 01:02:28;;;;;;;4.20;3.80;;;22.80;56.20;;;;;;6108217;23;20148;-89
2022/08/12 01:13:15;;;;;;;3.88;3.53;;;22.80;56.30;;;;;;6111044;23;20164;-88
2022/08/12 01:15:46;;;;;;;4.07;3.67;;;22.80;56.30;;;;;;6128109;23;20175;-87
2022/08/12 01:18:18;;;;;;;4.10;3.70;;;22.80;56.30;;;;;;6079221;23;20548;-89
2022/08/12 01:21:12;;;;;;;4.03;3.50;;;22.70;56.20;;;;;;6106370;23;20153;-88
2022/08/12 01:23:49;;;;;;;3.92;3.53;;;22.80;56.30;;;;;;6128569;23;20179;-91
2022/08/12 01:26:22;;;;;;;4.10;3.70;;;22.70;56.30;;;;;;6103036;23;20164;-88
2022/08/12 01:28:57;;;;;;;3.70;3.40;;;22.80;56.40;;;;;;6016996;23;20163;-88
2022/08/12 01:31:30;;;;;;;3.80;3.50;;;22.80;56.40;;;;;;6016697;23;20162;-90
2022/08/12 01:34:04;;;;;;;4.28;3.88;;;22.70;56.40;;;;;;6015959;23;20154;-89
2022/08/12 01:36:44;;;;;;;3.78;3.38;;;22.80;56.50;;;;;;6015344;23;20186;-88
2022/08/12 01:39:14;;;;;;;3.88;3.53;;;22.80;56.50;;;;;;5959254;24;20155;-87
2022/08/12 01:41:47;;;;;;;4.03;3.63;;;22.80;56.50;;;;;;5978272;23;20155;-88
2022/08/12 01:44:20;;;;;;;4.22;3.80;;;22.70;56.50;;;;;;6016125;23;20233;-88
2022/08/12 01:47:18;;;;;;;3.97;3.58;;;22.70;56.40;;;;;;6039663;23;20203;-89
2022/08/12 01:50:19;;;;;;;4.03;3.53;;;22.70;56.60;;;;;;6074424;23;20153;-88
2022/08/12 01:53:09;;;;;;;3.78;3.38;;;22.70;56.50;;;;;;6073974;23;20155;-87
2022/08/12 01:55:45;;;;;;;3.83;3.42;;;22.70;56.60;;;;;;6162060;23;20152;-88
2022/08/12 01:58:21;;;;;;;3.97;3.58;;;22.70;56.50;;;;;;6162736;23;20188;-89
2022/08/12 02:00:57;;;;;;;3.75;3.35;;;22.70;56.60;;;;;;6227108;23;20129;-89
2022/08/12 02:12:46;;;;;;;4.90;3.90;;;22.70;56.70;;;;;;6284521;22;20192;-89
2022/08/12 02:15:23;;;;;;;3.67;3.25;;;22.70;56.70;;;;;;6267388;22;20138;-90
2022/08/12 02:18:21;;;;;;;3.95;3.55;;;22.70;56.70;;;;;;6191220;23;20183;-88
2022/08/12 02:21:01;;;;;;;4.00;3.60;;;22.70;56.70;;;;;;6166616;23;20147;-89
2022/08/12 02:23:29;;;;;;;3.95;3.55;;;22.60;56.70;;;;;;6169126;23;20131;-88
2022/08/12 02:26:09;;;;;;;3.78;3.45;;;22.70;56.80;;;;;;6142535;23;20146;-88
2022/08/12 02:28:37;;;;;;;3.97;3.58;;;22.60;56.80;;;;;;6166882;23;20155;-88
2022/08/12 02:31:09;;;;;;;3.55;3.22;;;22.60;56.80;;;;;;6137104;23;20155;-89
2022/08/12 02:33:36;;;;;;;4.10;3.70;;;22.60;56.80;;;;;;6137050;23;20301;-89
2022/08/12 02:36:04;;;;;;;4.43;4.03;;;22.60;56.80;;;;;;6078477;23;20235;-88
2022/08/12 02:38:37;;;;;;;3.80;3.42;;;22.60;56.80;;;;;;6054421;23;20192;-90
2022/08/12 02:41:07;;;;;;;4.00;3.60;;;22.60;56.90;;;;;;6050499;23;20176;-88
2022/08/12 02:43:41;;;;;;;4.07;3.67;;;22.60;56.90;;;;;;6050687;23;20165;-87
2022/08/12 02:46:11;;;;;;;4.55;3.80;;;22.60;56.90;;;;;;6073410;23;20195;-88
2022/08/12 02:48:54;;;;;;;3.97;3.60;;;22.60;56.90;;;;;;6085840;23;20528;-88
2022/08/12 02:51:28;;;;;;;4.13;3.72;;;22.60;56.90;;;;;;6137246;23;20155;-88
2022/08/12 02:53:57;;;;;;;3.65;3.35;;;22.60;56.90;;;;;;6113903;23;20152;-89
2022/08/12 02:56:25;;;;;;;3.95;3.60;;;22.60;56.90;;;;;;6112990;23;20159;-91
2022/08/12 02:58:52;;;;;;;4.03;3.63;;;22.60;56.90;;;;;;6113382;23;20157;-89
2022/08/12 03:01:30;;;;;;;3.83;3.42;;;22.60;56.90;;;;;;6089504;23;20155;-88
2022/08/12 03:04:04;;;;;;;3.83;3.42;;;22.60;57.00;;;;;;6102306;23;20156;-89
2022/08/12 03:06:42;;;;;;;4.00;3.60;;;22.50;56.90;;;;;;6063705;23;20167;-89
2022/08/12 03:09:12;;;;;;;3.67;3.30;;;22.60;57.00;;;;;;6061613;23;20163;-88
2022/08/12 03:11:56;;;;;;;4.07;3.67;;;22.50;56.90;;;;;;6064427;23;20233;-89
2022/08/12 03:14:29;;;;;;;4.22;3.83;;;22.60;57.10;;;;;;5969192;23;20222;-87
2022/08/12 03:17:14;;;;;;;3.85;3.38;;;22.50;57.00;;;;;;6049608;23;20204;-88
2022/08/12 03:19:44;;;;;;;3.88;3.40;;;22.60;57.10;;;;;;6073345;23;20216;-88
2022/08/12 03:22:17;;;;;;;4.18;3.55;;;22.60;57.10;;;;;;6073277;23;20145;-88
2022/08/12 03:24:46;;;;;;;4.53;3.97;;;22.60;57.10;;;;;;6073252;23;20644;-87
2022/08/12 03:27:18;;;;;;;3.60;3.30;;;22.50;57.10;;;;;;6048113;23;20157;-89
2022/08/12 03:29:49;;;;;;;3.90;3.45;;;22.60;57.10;;;;;;6037743;23;20599;-89
2022/08/12 03:32:24;;;;;;;4.00;3.60;;;22.60;57.10;;;;;;5996394;23;20223;-88
2022/08/12 03:34:56;;;;;;;4.18;3.78;;;22.50;57.10;;;;;;6031621;23;20162;-90
2022/08/12 03:37:30;;;;;;;4.13;3.72;;;22.60;57.10;;;;;;6045486;23;20529;-88
2022/08/12 03:39:56;;;;;;;3.97;3.63;;;22.50;57.10;;;;;;6045696;23;20158;-89
2022/08/12 03:42:37;;;;;;;3.65;3.28;;;22.50;57.20;;;;;;5989080;24;20155;-88
2022/08/12 04:01:39;;;;;;;3.97;3.53;;;22.50;57.20;;;;;;5879981;24;20297;-88
2022/08/12 04:04:43;;;;;;;;;;;;;;;;;;;;;
2022/08/12 04:14:39;;;;;;;;;;;;;;;;;;;;;
2022/08/12 04:18:08;;;;;;;;;;;;;;;;;;;;;
2022/08/12 04:36:43;;;;;;;;;;;;;;;;;;;;;
2022/08/12 04:40:20;;;;;;;3.60;3.30;;;22.60;57.10;;;;;;5725873;25;20294;-87
2022/08/12 04:43:31;;;;;;;3.50;3.20;;;22.60;57.00;;;;;;5675509;25;20190;-88
2022/08/12 04:46:21;;;;;;;3.50;3.13;;;22.70;56.90;;;;;;5724531;25;20681;-88
2022/08/12 04:49:48;;;;;;;;;;;;;;;;;;;;;
2022/08/12 04:52:39;;;;;;;3.50;3.20;;;22.70;56.90;;;;;;5716807;25;20198;-88
2022/08/12 04:55:44;;;;;;;3.58;3.28;;;22.70;56.90;;;;;;5747377;24;20174;-88
2022/08/12 04:58:31;;;;;;;3.50;3.17;;;22.70;56.80;;;;;;5751622;24;20251;-88
2022/08/12 05:01:08;;;;;;;3.50;3.20;;;22.70;56.70;;;;;;5730320;25;20169;-88
2022/08/12 05:04:11;;;;;;;3.20;2.90;;;22.80;56.80;;;;;;5746786;25;20192;-88
2022/08/12 05:10:25;;;;;;;3.53;3.22;;;22.90;56.80;;;;;;5678708;25;20166;-88
2022/08/12 05:17:50;;;;;;;;;;;;;;;;;;;;;
2022/08/12 05:20:58;;;;;;;;;;;;;;;;;;;;;
2022/08/12 05:24:01;;;;;;;;;;;;;;;;;;;;;
2022/08/12 05:26:46;;;;;;;3.55;3.25;;;22.90;56.90;;;;;;5642479;25;20646;-89
2022/08/12 05:30:06;;;;;;;;;;;;;;;;;;;;;
2022/08/12 05:36:55;;;;;;;;;;;;;;;;;;;;;
2022/08/12 05:46:58;;;;;;;3.25;2.95;;;23.00;56.70;;;;;;5670521;25;20682;-89
2022/08/12 05:50:34;;;;;;;;;;;;;;;;;;;;;
2022/08/12 05:53:36;;;;;;;3.33;3.00;;;23.10;56.70;;;;;;5876745;24;20186;-88
2022/08/12 05:57:27;;;;;;;3.20;2.90;;;23.10;56.60;;;;;;5905612;24;20163;-89
2022/08/12 07:10:57;;;;;;;3.55;3.00;;;23.40;57.00;;;;;;6103446;22;2271983;-87
2022/08/12 07:14:28;;;;;;;3.20;2.90;;;23.40;57.00;;;;;;6304510;22;20128;-87
2022/08/12 07:17:04;;;;;;;3.50;3.20;;;23.40;56.90;;;;;;6220064;23;20154;-87
2022/08/12 07:19:42;;;;;;;3.15;2.85;;;23.40;57.00;;;;;;6174528;23;20158;-85
2022/08/12 07:26:20;;;;;;;3.78;3.00;;;23.50;57.30;;;;;;5968238;24;20192;-86
2022/08/12 07:29:13;;;;;;;3.40;3.10;;;23.50;57.00;;;;;;5928414;24;20244;-86
2022/08/12 07:31:51;;;;;;;3.10;2.80;;;23.40;57.00;;;;;;5884404;24;20232;-87
2022/08/12 07:34:48;;;;;;;3.75;2.80;;;23.50;57.10;;;;;;5831587;24;20163;-86
2022/08/12 07:37:25;;;;;;;3.47;3.17;;;23.50;57.00;;;;;;5813035;24;20160;-86
2022/08/12 07:40:33;;;;;;;3.10;2.80;;;23.50;57.10;;;;;;5804599;24;20291;-86
2022/08/12 07:43:06;;;;;;;3.53;3.00;;;23.50;57.10;;;;;;5721738;25;20163;-86
2022/08/12 07:45:31;;;;;;;3.40;3.10;;;23.50;57.30;;;;;;5675683;25;20195;-87
2022/08/12 07:48:17;;;;;;;3.58;3.10;;;23.50;57.20;;;;;;5716529;25;20220;-88
2022/08/12 07:50:43;;;;;;;3.97;3.33;;;23.60;57.20;;;;;;5743875;24;20516;-87
2022/08/12 07:53:35;;;;;;;3.25;2.95;;;23.60;57.10;;;;;;5761775;24;20161;-87
2022/08/12 07:56:41;;;;;;;3.22;2.92;;;23.50;57.10;;;;;;5784910;24;20166;-86
2022/08/12 07:59:23;;;;;;;3.90;2.90;;;23.50;57.30;;;;;;5806130;24;20243;-86
2022/08/12 08:02:11;;;;;;;5.75;3.10;;;23.50;57.40;;;;;;5829686;24;20227;-86
2022/08/12 08:14:27;;;;;;;5.13;2.83;;;23.50;57.50;;;;;;5911753;24;20193;-87
2022/08/12 08:16:56;;;;;;;7.93;3.10;;;23.60;57.50;;;;;;5888363;24;20169;-86
2022/08/12 08:19:32;;;;;;;5.60;3.03;;;23.50;57.40;;;;;;5910726;24;20196;-86
2022/08/12 08:21:59;;;;;;;10.02;3.42;;;23.60;57.50;;;;;;5933679;24;20225;-85
2022/08/12 08:24:30;;;;;;;7.25;2.90;;;23.60;57.50;;;;;;5936690;24;20194;-87
2022/08/12 08:26:59;;;;;;;4.13;3.30;;;23.70;57.50;;;;;;5933388;24;20206;-86
2022/08/12 08:29:25;;;;;;;7.80;3.22;;;23.70;57.60;;;;;;5983056;23;20161;-87
2022/08/12 08:31:53;;;;;;;6.03;3.13;;;23.70;57.70;;;;;;5968035;23;20158;-88
2022/08/12 08:34:20;;;;;;;5.00;3.10;;;23.60;57.60;;;;;;5970565;23;20229;-88
2022/08/12 08:36:52;;;;;;;14.00;3.30;;;23.60;57.60;;;;;;5997965;23;20225;-87
2022/08/12 08:39:20;;;;;;;5.53;3.45;;;23.70;57.60;;;;;;6074907;23;20231;-87
2022/08/12 08:44:28;;;;;;;8.55;3.30;;;23.80;57.60;;;;;;6108889;23;20514;-87
2022/08/12 08:47:07;;;;;;;7.32;3.03;;;23.80;57.60;;;;;;6085803;23;20326;-87
2022/08/12 08:49:36;;;;;;;8.00;3.10;;;23.80;57.60;;;;;;6112652;23;20179;-87
2022/08/12 08:52:17;;;;;;;8.60;3.40;;;23.80;57.50;;;;;;6135278;23;20191;-86
2022/08/12 08:54:57;;;;;;;6.93;3.15;;;23.80;57.70;;;;;;6131510;23;20226;-86
2022/08/12 08:57:42;;;;;;;12.70;3.40;;;23.80;57.70;;;;;;6081993;23;20194;-87
2022/08/12 09:00:30;;;;;;;9.15;3.75;;;23.90;57.60;;;;;;6106513;23;20610;-88
2022/08/12 09:03:19;;;;;;;7.53;3.22;;;23.80;57.60;;;;;;6079324;23;20186;-86
2022/08/12 09:05:55;;;;;;;8.98;3.08;;;23.80;57.70;;;;;;6019796;23;20182;-89
2022/08/12 09:08:43;;;;;;;8.40;3.33;;;23.90;58.10;;;;;;5959136;24;20209;-88
2022/08/12 09:13:59;;;;;;;8.45;3.30;;;23.90;57.50;;;;;;5963252;24;20163;-88
2022/08/12 09:16:30;;;;;;;11.52;3.22;;;23.70;57.60;;;;;;5963976;24;20242;-87
2022/08/12 09:19:02;;;;;;;18.45;3.55;;;23.80;57.70;;;;;;5961354;24;20190;-89
2022/08/12 09:21:29;;;;;;;14.55;3.42;;;23.80;57.80;;;;;;5903049;24;20191;-86
2022/08/12 09:23:59;;;;;;;18.13;4.28;;;23.70;57.90;;;;;;5905566;24;20313;-87
2022/08/12 09:26:31;;;;;;;23.80;3.60;;;23.70;58.20;;;;;;5929831;24;20181;-87
2022/08/12 09:29:02;;;;;;;14.70;3.65;;;23.70;58.40;;;;;;5928587;24;20214;-89
2022/08/12 09:38:43;;;;;;;13.15;3.72;;;23.70;58.50;;;;;;5846109;24;20248;-88
2022/08/12 09:41:14;;;;;;;13.02;3.50;;;23.80;58.20;;;;;;5849366;24;20190;-87
2022/08/12 10:01:13;;;;;;;17.95;3.85;;;23.90;57.90;;;;;;6127985;23;20244;-88
2022/08/12 10:03:45;;;;;;;12.05;3.67;;;23.80;58.30;;;;;;6044579;23;20273;-89
2022/08/12 10:06:13;;;;;;;18.13;4.25;;;23.80;58.50;;;;;;5993187;23;20162;-88
2022/08/12 10:08:48;;;;;;;9.20;3.72;;;23.80;58.60;;;;;;5992939;23;20165;-88
2022/08/12 10:14:38;;;;;;;13.45;3.60;;;23.90;58.20;;;;;;6116141;23;20488;-88
2022/08/12 10:17:52;;;;;;;17.42;4.13;;;23.80;58.40;;;;;;6046569;23;20176;-88
2022/08/12 11:01:53;;;;;;;10.43;4.05;;;23.80;59.10;;;;;;6216213;23;20149;-89
2022/08/12 11:04:46;;;;;;;14.13;3.40;;;23.70;59.10;;;;;;6217064;23;20525;-89
2022/08/12 11:07:49;;;;;;;9.18;3.20;;;23.80;59.20;;;;;;6177004;23;20181;-90
2022/08/12 11:10:51;;;;;;;7.43;3.70;;;23.80;59.10;;;;;;6173613;23;20141;-89
2022/08/12 11:13:23;;;;;;;4.72;3.30;;;23.70;59.90;;;;;;6178098;22;20167;-88
2022/08/12 11:15:54;;;;;;;12.73;3.53;;;23.80;59.20;;;;;;6254044;22;20244;-88
2022/08/12 11:18:50;;;;;;;8.70;3.70;;;23.80;59.10;;;;;;6279837;22;20318;-90
2022/08/12 11:21:19;;;;;;;10.07;3.45;;;23.70;59.20;;;;;;6247111;23;20662;-88
2022/08/12 11:23:55;;;;;;;8.63;3.70;;;23.80;59.30;;;;;;6173488;23;20177;-88
2022/08/12 11:26:26;;;;;;;6.35;3.45;;;23.80;59.10;;;;;;6174927;23;20145;-89
2022/08/12 11:29:28;;;;;;;8.10;3.63;;;23.80;59.10;;;;;;6129336;23;20182;-88
2022/08/12 11:32:23;;;;;;;6.30;3.47;;;23.80;59.20;;;;;;6026702;23;20160;-88
2022/08/12 11:35:37;;;;;;;;;;;;;;;;;;;;;
2022/08/12 11:38:25;;;;;;;5.38;3.50;;;23.80;59.20;;;;;;5876857;24;20189;-87
2022/08/12 11:45:17;;;;;;;7.85;3.80;;;23.90;59.30;;;;;;5829615;24;20195;-88
2022/08/12 11:48:24;;;;;;;11.88;3.97;;;23.90;59.20;;;;;;5757938;24;20186;-90
2022/08/12 11:50:55;;;;;;;10.65;3.70;;;23.90;59.40;;;;;;5823354;24;20247;-88
2022/08/12 11:53:25;;;;;;;11.73;4.03;;;23.80;59.30;;;;;;5824706;24;20159;-87
2022/08/12 11:56:05;;;;;;;17.15;3.85;;;24.00;59.20;;;;;;5770452;24;20628;-87
2022/08/12 11:58:37;;;;;;;14.80;3.80;;;23.90;59.20;;;;;;5789484;24;20167;-89
2022/08/12 12:01:02;;;;;;;12.05;4.00;;;23.90;59.20;;;;;;5792852;24;20161;-87
2022/08/12 12:03:29;;;;;;;9.60;3.63;;;23.90;59.30;;;;;;5748389;24;20199;-86
2022/08/12 12:06:06;;;;;;;22.80;4.32;;;24.00;59.10;;;;;;5768835;24;20634;-88
2022/08/12 12:08:33;;;;;;;16.42;4.15;;;23.90;59.10;;;;;;5750856;24;20191;-87
2022/08/12 12:11:02;;;;;;;17.45;4.10;;;23.90;59.20;;;;;;5816353;24;20200;-89
2022/08/12 12:14:25;;;;;;;19.60;4.63;;;24.00;59.20;;;;;;5790025;24;20210;-87
2022/08/12 12:34:00;;;;;;;17.95;4.78;;;24.50;58.00;;;;;;6132997;23;20183;-89
2022/08/12 12:36:28;;;;;;;14.27;4.22;;;24.50;57.90;;;;;;6046686;23;20160;-90
2022/08/12 12:38:57;;;;;;;21.65;3.85;;;24.50;58.20;;;;;;6050145;23;20153;-88
2022/08/12 12:41:30;;;;;;;10.40;4.20;;;24.50;58.00;;;;;;6044961;23;20585;-89
2022/08/12 12:43:57;;;;;;;14.10;3.92;;;24.50;57.80;;;;;;6051812;23;20180;-90
2022/08/12 12:46:32;;;;;;;14.15;3.80;;;24.50;57.90;;;;;;6048463;23;20196;-88
2022/08/12 12:48:57;;;;;;;10.38;3.90;;;24.50;57.90;;;;;;6071469;23;20184;-88
2022/08/12 12:51:23;;;;;;;12.57;4.15;;;24.60;57.80;;;;;;6071710;23;20144;-87
2022/08/12 12:53:54;;;;;;;20.35;4.18;;;24.60;57.80;;;;;;6071711;23;20157;-87
2022/08/12 12:56:26;;;;;;;13.38;3.85;;;24.50;57.90;;;;;;6049356;23;20577;-88
2022/08/12 12:58:59;;;;;;;13.75;4.00;;;24.50;57.90;;;;;;6075239;23;20141;-88
2022/08/12 13:05:01;;;;;;;15.98;4.18;;;24.50;58.00;;;;;;6034287;23;20180;-89
2022/08/12 13:07:39;;;;;;;15.52;4.15;;;24.50;58.00;;;;;;6019686;23;20648;-88
2022/08/12 13:24:39;;;;;;;11.05;3.83;;;24.80;57.20;;;;;;6076070;23;20232;-90
2022/08/12 13:27:09;;;;;;;17.00;4.00;;;24.90;57.00;;;;;;6047156;23;20483;-88
2022/08/12 13:29:37;;;;;;;10.27;4.10;;;24.80;57.20;;;;;;6045896;23;20181;-89
2022/08/12 13:32:13;;;;;;;7.88;3.83;;;24.80;57.30;;;;;;6058926;23;20152;-88
2022/08/12 13:34:39;;;;;;;10.68;3.53;;;24.70;57.30;;;;;;5994779;23;20158;-88
2022/08/12 13:37:33;;;;;;;;;;;;;;;;;;;;;
2022/08/12 13:40:09;;;;;;;15.60;4.50;;;24.80;57.20;;;;;;5920676;23;20219;-89
2022/08/12 13:42:38;;;;;;;10.85;3.83;;;24.70;57.40;;;;;;6041385;23;20259;-89
2022/08/12 13:45:32;;;;;;;10.65;3.92;;;24.60;57.50;;;;;;6017523;23;20181;-89
2022/08/12 13:48:03;;;;;;;9.20;3.55;;;24.60;57.60;;;;;;6033636;23;20257;-89
2022/08/12 13:50:36;;;;;;;8.80;3.58;;;24.60;57.30;;;;;;5991919;23;20582;-88
2022/08/12 13:53:13;;;;;;;6.97;3.80;;;24.70;57.10;;;;;;5993025;23;20192;-88
2022/08/12 13:55:50;;;;;;;7.57;3.78;;;24.70;56.70;;;;;;5993314;23;20157;-89
2022/08/12 13:58:22;;;;;;;10.07;3.90;;;24.80;56.70;;;;;;6015991;23;20172;-89
2022/08/12 14:00:51;;;;;;;11.80;3.72;;;24.70;56.50;;;;;;5988230;23;20199;-88
2022/08/12 14:06:51;;;;;;;8.05;3.67;;;24.70;56.40;;;;;;5984135;24;20163;-89
2022/08/12 14:10:35;;;;;;;7.57;3.70;;;24.70;56.50;;;;;;5983817;23;20185;-89
2022/08/12 14:12:40;;;;;;;8.25;3.53;;;24.60;56.40;;;;;;6016586;23;20212;-89
2022/08/12 14:15:10;;;;;;;5.65;3.63;;;24.70;55.70;;;;;;6099167;23;20155;-88
2022/08/12 14:17:39;;;;;;;5.78;3.83;;;24.70;55.70;;;;;;6069619;23;20168;-89
2022/08/12 14:20:15;;;;;;;7.88;3.92;;;24.80;55.40;;;;;;6045115;23;20157;-89
2022/08/12 14:22:43;;;;;;;6.93;3.53;;;24.80;55.60;;;;;;6046336;23;20197;-89
2022/08/12 14:25:09;;;;;;;4.75;3.30;;;24.70;55.60;;;;;;6020137;23;20197;-89
2022/08/12 14:27:36;;;;;;;8.05;3.67;;;24.80;55.40;;;;;;6023971;23;20153;-88
2022/08/12 14:30:05;;;;;;;11.80;3.95;;;24.80;55.80;;;;;;6022958;23;20248;-88
2022/08/12 14:32:33;;;;;;;8.93;3.78;;;24.80;55.50;;;;;;6027721;23;20589;-88
2022/08/12 14:34:59;;;;;;;7.05;3.78;;;24.80;55.70;;;;;;6074768;23;20251;-88
2022/08/12 14:37:29;;;;;;;4.78;3.47;;;24.80;55.30;;;;;;6074759;23;20157;-88
2022/08/12 14:39:59;;;;;;;5.72;3.40;;;24.70;55.70;;;;;;6074664;23;20163;-89
2022/08/12 14:42:25;;;;;;;6.57;3.45;;;24.80;54.90;;;;;;6090403;23;20160;-87
2022/08/12 14:44:50;;;;;;;5.63;3.58;;;24.80;55.00;;;;;;6106451;23;20555;-88
2022/08/12 14:47:18;;;;;;;5.05;3.58;;;24.80;55.30;;;;;;6132670;23;20207;-88
2022/08/12 14:49:45;;;;;;;6.10;3.33;;;24.80;54.80;;;;;;6132524;23;20201;-88
2022/08/12 14:52:11;;;;;;;6.13;3.40;;;24.90;54.90;;;;;;6132632;23;20147;-88
2022/08/12 14:54:41;;;;;;;5.82;3.63;;;24.90;54.60;;;;;;6214683;22;20210;-87
2022/08/12 14:57:10;;;;;;;3.90;3.30;;;24.90;54.70;;;;;;6279644;22;20169;-87
2022/08/12 15:02:20;;;;;;;6.07;3.63;;;24.90;54.10;;;;;;6257560;22;20136;-87
2022/08/12 15:04:53;;;;;;;4.82;3.35;;;24.90;54.30;;;;;;6227862;22;20168;-88
2022/08/12 15:07:19;;;;;;;4.22;3.33;;;24.90;54.20;;;;;;6230649;22;20518;-88
2022/08/12 15:09:45;;;;;;;4.80;3.55;;;24.90;54.20;;;;;;6230071;22;20151;-88
2022/08/12 15:12:12;;;;;;;6.97;3.10;;;24.90;53.90;;;;;;6229687;22;20140;-88
2022/08/12 15:14:41;;;;;;;6.85;3.50;;;24.90;54.00;;;;;;6253602;22;20129;-88
2022/08/12 15:17:08;;;;;;;5.15;3.50;;;24.90;54.30;;;;;;6231353;22;20140;-88
2022/08/12 15:19:34;;;;;;;4.30;3.70;;;25.00;54.70;;;;;;6228890;22;20584;-88
2022/08/12 15:22:00;;;;;;;5.95;3.10;;;24.90;55.40;;;;;;6227483;22;20148;-88
2022/08/12 15:24:26;;;;;;;4.05;3.10;;;24.90;55.60;;;;;;6256977;22;20519;-88
2022/08/12 15:26:52;;;;;;;5.25;3.33;;;24.90;55.80;;;;;;6232165;22;20190;-87
2022/08/12 15:29:18;;;;;;;6.45;3.63;;;24.90;56.00;;;;;;6257767;22;20139;-88
2022/08/12 15:31:44;;;;;;;4.55;3.40;;;25.00;56.20;;;;;;6257783;22;20152;-88
2022/08/12 15:34:11;;;;;;;4.85;3.53;;;25.00;56.10;;;;;;6233043;22;20140;-88
2022/08/12 15:36:37;;;;;;;4.10;3.67;;;24.90;56.20;;;;;;6283752;22;20129;-88
2022/08/12 15:39:08;;;;;;;5.60;3.50;;;24.90;56.20;;;;;;6233481;22;20227;-88
2022/08/12 15:41:37;;;;;;;4.07;3.17;;;24.90;56.40;;;;;;6233504;22;20157;-88
2022/08/12 15:44:03;;;;;;;4.40;3.65;;;24.80;56.80;;;;;;6258275;22;20188;-89
2022/08/12 15:46:31;;;;;;;4.25;3.30;;;24.80;57.00;;;;;;6258731;22;20151;-89
2022/08/12 15:48:59;;;;;;;5.07;3.58;;;24.80;57.50;;;;;;6258017;22;20140;-88
2022/08/12 15:51:34;;;;;;;6.63;3.47;;;24.70;57.60;;;;;;6232329;22;20151;-88
2022/08/12 15:54:05;;;;;;;5.15;3.65;;;24.80;58.20;;;;;;6257513;22;20128;-88
2022/08/12 15:56:31;;;;;;;5.80;3.72;;;24.70;58.10;;;;;;6234065;22;20156;-88
2022/08/12 15:58:57;;;;;;;6.57;3.80;;;24.60;58.30;;;;;;6232373;22;20144;-88
2022/08/12 16:01:23;;;;;;;7.22;4.10;;;24.60;58.10;;;;;;6257335;22;20136;-88
2022/08/12 16:03:50;;;;;;;5.18;3.63;;;24.60;58.60;;;;;;6257111;22;20178;-88
2022/08/12 16:06:16;;;;;;;5.25;3.85;;;24.50;59.10;;;;;;6257764;22;20178;-88
2022/08/12 16:08:42;;;;;;;4.40;3.83;;;24.50;59.00;;;;;;6231321;22;20247;-88
2022/08/12 16:11:08;;;;;;;4.20;3.80;;;24.50;59.30;;;;;;6232015;22;20467;-89
2022/08/12 16:13:35;;;;;;;4.30;3.90;;;24.50;59.80;;;;;;6232110;22;20231;-88
2022/08/12 16:16:04;;;;;;;4.18;3.70;;;24.50;59.60;;;;;;6232144;22;20148;-88
2022/08/12 16:18:34;;;;;;;4.57;3.65;;;24.50;59.70;;;;;;6283183;22;20154;-87
2022/08/12 16:21:01;;;;;;;5.35;3.95;;;24.50;60.30;;;;;;6233184;22;20571;-88
2022/08/12 16:23:26;;;;;;;4.13;3.80;;;24.50;59.90;;;;;;6256385;22;20195;-88
2022/08/12 16:25:52;;;;;;;5.82;4.15;;;24.50;60.30;;;;;;6256535;22;20172;-88
2022/08/12 16:28:21;;;;;;;4.70;3.95;;;24.40;60.00;;;;;;6257235;22;20133;-88
2022/08/12 16:30:47;;;;;;;4.60;4.10;;;24.40;60.90;;;;;;6233977;22;20132;-88
2022/08/12 16:33:17;;;;;;;5.32;4.38;;;24.30;60.50;;;;;;6283866;22;20135;-89
2022/08/12 16:35:44;;;;;;;4.72;4.30;;;24.40;60.80;;;;;;6234751;22;20213;-89
2022/08/12 16:38:14;;;;;;;4.32;3.92;;;24.30;61.20;;;;;;6233566;22;20136;-89
2022/08/12 16:40:43;;;;;;;4.55;4.13;;;24.30;61.70;;;;;;6196464;23;20153;-89
2022/08/12 16:43:25;;;;;;;4.90;4.28;;;24.30;62.50;;;;;;6196188;23;20181;-89
2022/08/12 16:45:52;;;;;;;5.00;4.50;;;24.30;62.00;;;;;;6221095;23;20184;-89
2022/08/12 16:48:24;;;;;;;4.32;3.92;;;24.30;62.50;;;;;;6196162;23;20196;-89
2022/08/12 16:50:50;;;;;;;7.10;4.70;;;24.30;62.50;;;;;;6196659;23;20149;-89
2022/08/12 16:53:17;;;;;;;5.00;4.32;;;24.30;62.00;;;;;;6196638;23;20207;-89
2022/08/12 16:55:43;;;;;;;4.63;4.22;;;24.40;62.60;;;;;;6196200;23;20154;-89
2022/08/12 16:58:11;;;;;;;4.47;4.07;;;24.40;62.30;;;;;;6195720;23;20634;-89
2022/08/12 17:00:39;;;;;;;4.78;4.28;;;24.40;62.60;;;;;;6221019;23;20150;-89
2022/08/12 17:03:09;;;;;;;4.38;3.97;;;24.40;62.60;;;;;;6221004;23;20138;-89
2022/08/12 17:05:35;;;;;;;4.55;4.15;;;24.30;62.60;;;;;;6221010;23;20181;-89
2022/08/12 17:08:01;;;;;;;4.35;3.95;;;24.30;62.90;;;;;;6196104;23;20146;-89
2022/08/12 17:10:27;;;;;;;4.30;3.90;;;24.30;63.50;;;;;;6173214;22;20160;-89
2022/08/12 17:12:52;;;;;;;4.25;3.85;;;24.30;63.30;;;;;;6256136;22;20154;-89
2022/08/12 17:15:20;;;;;;;4.38;3.97;;;24.30;63.60;;;;;;6231438;22;20579;-89
2022/08/12 17:17:50;;;;;;;4.32;3.80;;;24.20;63.80;;;;;;6230950;22;20233;-89
2022/08/12 17:20:17;;;;;;;4.30;3.90;;;24.20;64.00;;;;;;6231803;22;20158;-89
2022/08/12 17:22:42;;;;;;;4.60;4.15;;;24.30;64.20;;;;;;6231378;22;20160;-88
2022/08/12 17:25:09;;;;;;;4.65;4.15;;;24.30;64.00;;;;;;6256269;22;20252;-89
2022/08/12 17:27:39;;;;;;;4.13;3.80;;;24.20;64.00;;;;;;6230610;22;20148;-89
2022/08/12 17:30:08;;;;;;;4.45;4.05;;;24.30;64.30;;;;;;6227487;22;20156;-89
2022/08/12 17:32:34;;;;;;;3.88;3.58;;;24.20;64.40;;;;;;6277818;22;20129;-89
2022/08/12 17:37:47;;;;;;;4.22;3.80;;;24.10;64.70;;;;;;6255916;22;20140;-89
2022/08/12 17:40:13;;;;;;;4.43;3.90;;;24.10;65.00;;;;;;6227027;22;20235;-89
2022/08/12 17:42:44;;;;;;;4.22;3.65;;;24.10;65.00;;;;;;6227687;22;20148;-89
2022/08/12 17:45:10;;;;;;;3.58;3.28;;;24.00;65.00;;;;;;6166203;23;20185;-88
2022/08/12 17:47:38;;;;;;;3.50;3.20;;;24.00;65.20;;;;;;6126051;23;20156;-89
2022/08/12 17:50:07;;;;;;;4.63;3.40;;;24.00;65.40;;;;;;6126838;23;20506;-89
2022/08/12 17:52:40;;;;;;;3.95;3.60;;;24.00;65.40;;;;;;6126022;23;20160;-89
2022/08/12 17:55:11;;;;;;;3.58;3.28;;;23.90;65.50;;;;;;6126345;23;20155;-89
2022/08/12 17:57:38;;;;;;;3.78;3.47;;;23.90;65.60;;;;;;6125653;23;20524;-88
2022/08/12 18:00:11;;;;;;;4.07;3.50;;;23.90;65.60;;;;;;6125962;23;20280;-88
2022/08/12 18:02:39;;;;;;;4.57;4.18;;;23.90;65.70;;;;;;6125761;23;20258;-88
2022/08/12 18:05:10;;;;;;;3.65;3.30;;;23.80;65.70;;;;;;6125959;23;20190;-88
2022/08/12 18:07:36;;;;;;;3.47;3.17;;;23.80;65.80;;;;;;6126410;23;20159;-88
2022/08/12 18:10:03;;;;;;;3.65;3.35;;;23.80;65.70;;;;;;6126063;23;20270;-88
2022/08/12 18:12:37;;;;;;;3.97;3.58;;;23.80;65.80;;;;;;6125590;23;20152;-88
2022/08/12 18:15:06;;;;;;;3.67;3.38;;;23.70;65.80;;;;;;6127967;23;20187;-88
2022/08/12 18:17:35;;;;;;;3.40;3.10;;;23.80;65.80;;;;;;6138915;22;20610;-88
2022/08/12 18:20:04;;;;;;;4.03;3.20;;;23.80;65.70;;;;;;6227417;22;20153;-88
2022/08/12 18:22:30;;;;;;;3.67;3.20;;;23.70;65.70;;;;;;6227556;22;20603;-88
2022/08/12 18:24:57;;;;;;;3.58;3.28;;;23.70;65.90;;;;;;6256579;22;20555;-87
2022/08/12 18:27:24;;;;;;;3.20;2.90;;;23.70;65.90;;;;;;6231702;22;20227;-88
2022/08/12 18:29:52;;;;;;;3.67;3.38;;;23.70;65.90;;;;;;6256681;22;20498;-88
2022/08/12 18:32:22;;;;;;;3.35;3.05;;;23.60;65.70;;;;;;6258300;22;20139;-88
2022/08/12 18:34:51;;;;;;;3.40;3.10;;;23.70;65.80;;;;;;6220414;23;20153;-88
2022/08/12 18:37:19;;;;;;;3.63;3.33;;;23.60;65.80;;;;;;6170887;23;20153;-88
2022/08/12 18:42:31;;;;;;;3.40;3.10;;;23.60;65.80;;;;;;6201991;23;20173;-88
2022/08/12 18:45:06;;;;;;;3.38;3.08;;;23.50;66.00;;;;;;6170404;23;20652;-88
2022/08/12 18:47:35;;;;;;;3.50;3.20;;;23.50;66.00;;;;;;6196806;23;20527;-88
2022/08/12 18:50:05;;;;;;;3.47;2.92;;;23.50;65.90;;;;;;6194885;23;20164;-89
2022/08/12 18:52:32;;;;;;;3.30;3.00;;;23.40;66.00;;;;;;6171787;23;20180;-88
2022/08/12 18:55:02;;;;;;;3.42;3.13;;;23.40;66.10;;;;;;6155219;23;20152;-87
2022/08/12 18:57:29;;;;;;;4.65;2.90;;;23.40;66.30;;;;;;6130190;23;20182;-89
2022/08/12 19:00:00;;;;;;;3.20;2.90;;;23.30;66.30;;;;;;6155459;23;20182;-88
2022/08/12 19:02:26;;;;;;;3.00;2.80;;;23.30;66.50;;;;;;6130763;23;20175;-88
2022/08/12 19:04:56;;;;;;;3.72;3.10;;;23.30;66.50;;;;;;6137656;23;20178;-88
2022/08/12 19:07:23;;;;;;;4.38;3.08;;;23.30;66.50;;;;;;6155265;23;20148;-88
2022/08/12 19:09:56;;;;;;;3.25;2.95;;;23.20;66.50;;;;;;6130662;23;20156;-88
2022/08/12 19:15:01;;;;;;;3.20;2.90;;;23.20;66.60;;;;;;6157242;23;20155;-88
2022/08/12 19:17:27;;;;;;;2.97;2.60;;;23.20;66.60;;;;;;6132366;23;20156;-88